Terminal Aerodrome Forecast
Issued by NWS

Home | Current Version | Previous Version | Text Only | Print | Product List | Glossary On
Versions: 1 2 3 4 5 6 7 8 9 10 11 12 13 14 15 16 17 18 19 20 21 22 23
000
FTUS42 KJAX 220500
TAFVQQ
TAF
KVQQ 220520Z 2206/2306 00000KT P6SM FEW030 BKN150
      TEMPO 2207/2211 3SM BR
     FM221400 30004KT P6SM VCSH SCT030
     FM221800 10008KT P6SM VCTS BKN035CB
     FM230000 VRB03KT P6SM SCT040=

USA.gov is the U.S. government's official web portal to all federal, state and local government web resources and services.